sensor_id;sensor_type;location;lat;lon;timestamp;P1;durP1;ratioP1;P2;durP2;ratioP2
76512;SDS011;65345;0.000;0.000;2024-02-14T00:00:22;5.93;;;2.67;;
76512;SDS011;65345;0.000;0.000;2024-02-14T00:00:54;6.63;;;2.78;;
76512;SDS011;65345;0.000;0.000;2024-02-14T00:01:25;5.65;;;2.63;;
76512;SDS011;65345;0.000;0.000;2024-02-14T00:01:55;7.43;;;2.90;;
76512;SDS011;65345;0.000;0.000;2024-02-14T00:02:26;6.10;;;2.72;;
76512;SDS011;65345;0.000;0.000;2024-02-14T00:02:56;7.00;;;3.00;;
76512;SDS011;65345;0.000;0.000;2024-02-14T00:03:26;6.00;;;2.77;;
76512;SDS011;65345;0.000;0.000;2024-02-14T00:03:56;5.05;;;2.35;;
76512;SDS011;65345;0.000;0.000;2024-02-14T00:04:27;6.70;;;2.83;;
76512;SDS011;65345;0.000;0.000;2024-02-14T00:04:57;8.10;;;2.80;;
76512;SDS011;65345;0.000;0.000;2024-02-14T00:05:27;5.53;;;2.73;;
76512;SDS011;65345;0.000;0.000;2024-02-14T00:05:58;7.18;;;2.63;;
76512;SDS011;65345;0.000;0.000;2024-02-14T00:06:29;7.17;;;2.70;;
76512;SDS011;65345;0.000;0.000;2024-02-14T00:06:59;5.97;;;2.50;;
76512;SDS011;65345;0.000;0.000;2024-02-14T00:07:29;6.30;;;2.67;;
76512;SDS011;65345;0.000;0.000;2024-02-14T00:07:59;6.43;;;2.50;;
76512;SDS011;65345;0.000;0.000;2024-02-14T00:08:30;6.03;;;2.57;;
76512;SDS011;65345;0.000;0.000;2024-02-14T00:09:00;5.50;;;2.60;;
76512;SDS011;65345;0.000;0.000;2024-02-14T00:09:30;5.37;;;2.60;;
76512;SDS011;65345;0.000;0.000;2024-02-14T00:10:01;4.97;;;2.60;;
76512;SDS011;65345;0.000;0.000;2024-02-14T00:10:31;7.37;;;2.50;;
76512;SDS011;65345;0.000;0.000;2024-02-14T00:11:01;4.83;;;2.17;;
76512;SDS011;65345;0.000;0.000;2024-02-14T00:11:32;6.80;;;2.70;;
76512;SDS011;65345;0.000;0.000;2024-02-14T00:12:02;6.43;;;2.63;;
76512;SDS011;65345;0.000;0.000;2024-02-14T00:12:33;8.25;;;2.50;;
76512;SDS011;65345;0.000;0.000;2024-02-14T00:13:03;4.90;;;2.10;;
76512;SDS011;65345;0.000;0.000;2024-02-14T00:13:34;6.57;;;2.67;;
76512;SDS011;65345;0.000;0.000;2024-02-14T00:14:04;5.97;;;2.50;;
76512;SDS011;65345;0.000;0.000;2024-02-14T00:14:34;6.37;;;2.60;;
76512;SDS011;65345;0.000;0.000;2024-02-14T00:15:05;5.97;;;2.40;;
76512;SDS011;65345;0.000;0.000;2024-02-14T00:15:38;5.50;;;2.30;;
76512;SDS011;65345;0.000;0.000;2024-02-14T00:16:08;7.53;;;2.58;;
76512;SDS011;65345;0.000;0.000;2024-02-14T00:17:49;5.40;;;2.30;;
76512;SDS011;65345;0.000;0.000;2024-02-14T00:18:20;7.07;;;2.90;;
76512;SDS011;65345;0.000;0.000;2024-02-14T00:18:52;5.35;;;2.60;;
76512;SDS011;65345;0.000;0.000;2024-02-14T00:19:23;5.10;;;2.50;;
76512;SDS011;65345;0.000;0.000;2024-02-14T00:19:53;5.93;;;2.40;;
76512;SDS011;65345;0.000;0.000;2024-02-14T00:20:23;5.77;;;2.50;;
76512;SDS011;65345;0.000;0.000;2024-02-14T00:20:54;6.72;;;2.33;;
76512;SDS011;65345;0.000;0.000;2024-02-14T00:21:24;6.90;;;2.60;;
76512;SDS011;65345;0.000;0.000;2024-02-14T00:21:54;6.00;;;2.47;;
76512;SDS011;65345;0.000;0.000;2024-02-14T00:22:25;5.67;;;2.40;;
76512;SDS011;65345;0.000;0.000;2024-02-14T00:22:55;5.30;;;2.50;;
76512;SDS011;65345;0.000;0.000;2024-02-14T00:23:25;5.57;;;2.40;;
76512;SDS011;65345;0.000;0.000;2024-02-14T00:23:55;7.50;;;2.63;;
76512;SDS011;65345;0.000;0.000;2024-02-14T00:24:28;6.95;;;2.58;;
76512;SDS011;65345;0.000;0.000;2024-02-14T00:24:59;5.78;;;2.20;;
76512;SDS011;65345;0.000;0.000;2024-02-14T00:25:29;5.97;;;2.47;;
76512;SDS011;65345;0.000;0.000;2024-02-14T00:26:00;5.50;;;2.27;;
76512;SDS011;65345;0.000;0.000;2024-02-14T00:26:30;5.68;;;2.40;;
76512;SDS011;65345;0.000;0.000;2024-02-14T00:27:00;4.70;;;2.20;;
76512;SDS011;65345;0.000;0.000;2024-02-14T00:27:32;5.18;;;2.47;;
76512;SDS011;65345;0.000;0.000;2024-02-14T00:28:03;6.00;;;2.40;;
76512;SDS011;65345;0.000;0.000;2024-02-14T00:28:33;6.43;;;2.40;;
76512;SDS011;65345;0.000;0.000;2024-02-14T00:29:04;7.20;;;2.60;;
76512;SDS011;65345;0.000;0.000;2024-02-14T00:29:34;5.53;;;2.38;;
76512;SDS011;65345;0.000;0.000;2024-02-14T00:30:05;5.80;;;2.50;;
76512;SDS011;65345;0.000;0.000;2024-02-14T00:30:35;5.03;;;2.42;;
76512;SDS011;65345;0.000;0.000;2024-02-14T00:31:05;6.67;;;2.37;;
76512;SDS011;65345;0.000;0.000;2024-02-14T00:31:36;5.68;;;2.58;;
76512;SDS011;65345;0.000;0.000;2024-02-14T00:32:06;6.70;;;2.53;;
76512;SDS011;65345;0.000;0.000;2024-02-14T00:32:36;6.77;;;2.60;;
76512;SDS011;65345;0.000;0.000;2024-02-14T00:33:07;6.38;;;2.60;;
76512;SDS011;65345;0.000;0.000;2024-02-14T00:33:37;6.90;;;2.70;;
76512;SDS011;65345;0.000;0.000;2024-02-14T00:34:07;6.13;;;2.63;;
76512;SDS011;65345;0.000;0.000;2024-02-14T00:34:37;5.53;;;2.50;;
76512;SDS011;65345;0.000;0.000;2024-02-14T00:35:08;6.73;;;2.63;;
76512;SDS011;65345;0.000;0.000;2024-02-14T00:35:38;6.80;;;2.67;;
76512;SDS011;65345;0.000;0.000;2024-02-14T00:36:08;5.83;;;2.50;;
76512;SDS011;65345;0.000;0.000;2024-02-14T00:36:39;6.70;;;2.57;;
76512;SDS011;65345;0.000;0.000;2024-02-14T00:37:09;6.17;;;2.80;;
76512;SDS011;65345;0.000;0.000;2024-02-14T00:37:39;5.78;;;2.92;;
76512;SDS011;65345;0.000;0.000;2024-02-14T00:38:09;5.27;;;2.67;;
76512;SDS011;65345;0.000;0.000;2024-02-14T00:38:40;6.80;;;2.77;;
76512;SDS011;65345;0.000;0.000;2024-02-14T00:39:10;5.80;;;2.92;;
76512;SDS011;65345;0.000;0.000;2024-02-14T00:39:40;6.50;;;2.90;;
76512;SDS011;65345;0.000;0.000;2024-02-14T00:40:11;6.23;;;2.93;;
76512;SDS011;65345;0.000;0.000;2024-02-14T00:40:41;7.07;;;3.00;;
76512;SDS011;65345;0.000;0.000;2024-02-14T00:41:11;5.57;;;2.93;;
76512;SDS011;65345;0.000;0.000;2024-02-14T00:41:42;6.22;;;2.95;;
76512;SDS011;65345;0.000;0.000;2024-02-14T00:42:12;6.73;;;2.90;;
76512;SDS011;65345;0.000;0.000;2024-02-14T00:42:42;6.00;;;2.90;;
76512;SDS011;65345;0.000;0.000;2024-02-14T00:43:12;5.20;;;2.67;;
76512;SDS011;65345;0.000;0.000;2024-02-14T00:43:42;5.60;;;2.80;;
76512;SDS011;65345;0.000;0.000;2024-02-14T00:44:13;6.63;;;2.93;;
76512;SDS011;65345;0.000;0.000;2024-02-14T00:44:46;6.35;;;2.88;;
76512;SDS011;65345;0.000;0.000;2024-02-14T00:45:17;6.33;;;3.00;;
76512;SDS011;65345;0.000;0.000;2024-02-14T00:45:47;6.80;;;2.87;;
76512;SDS011;65345;0.000;0.000;2024-02-14T00:46:17;6.35;;;2.78;;
76512;SDS011;65345;0.000;0.000;2024-02-14T00:46:47;5.67;;;2.93;;
76512;SDS011;65345;0.000;0.000;2024-02-14T00:47:20;6.55;;;2.88;;
76512;SDS011;65345;0.000;0.000;2024-02-14T00:47:51;5.97;;;2.80;;
76512;SDS011;65345;0.000;0.000;2024-02-14T00:48:21;5.40;;;2.60;;
76512;SDS011;65345;0.000;0.000;2024-02-14T00:48:51;5.87;;;2.77;;
76512;SDS011;65345;0.000;0.000;2024-02-14T00:49:21;5.43;;;2.90;;
76512;SDS011;65345;0.000;0.000;2024-02-14T00:49:52;6.30;;;2.90;;
76512;SDS011;65345;0.000;0.000;2024-02-14T00:50:22;5.83;;;2.80;;
76512;SDS011;65345;0.000;0.000;2024-02-14T00:50:52;6.63;;;3.10;;
76512;SDS011;65345;0.000;0.000;2024-02-14T00:51:22;7.33;;;3.10;;
76512;SDS011;65345;0.000;0.000;2024-02-14T00:51:53;7.32;;;3.00;;
76512;SDS011;65345;0.000;0.000;2024-02-14T00:52:23;6.20;;;3.00;;
76512;SDS011;65345;0.000;0.000;2024-02-14T00:52:54;5.40;;;2.85;;
76512;SDS011;65345;0.000;0.000;2024-02-14T00:53:24;6.93;;;3.13;;
76512;SDS011;65345;0.000;0.000;2024-02-14T00:53:54;7.03;;;3.20;;
76512;SDS011;65345;0.000;0.000;2024-02-14T00:54:25;7.10;;;3.00;;
76512;SDS011;65345;0.000;0.000;2024-02-14T00:54:55;7.17;;;3.10;;
76512;SDS011;65345;0.000;0.000;2024-02-14T00:55:26;6.85;;;2.97;;
76512;SDS011;65345;0.000;0.000;2024-02-14T00:55:56;7.00;;;2.87;;
76512;SDS011;65345;0.000;0.000;2024-02-14T00:56:26;6.07;;;3.10;;
76512;SDS011;65345;0.000;0.000;2024-02-14T00:56:56;6.00;;;3.00;;
76512;SDS011;65345;0.000;0.000;2024-02-14T00:57:27;7.47;;;3.10;;
76512;SDS011;65345;0.000;0.000;2024-02-14T00:57:57;6.60;;;3.00;;
76512;SDS011;65345;0.000;0.000;2024-02-14T00:58:27;5.30;;;3.00;;
76512;SDS011;65345;0.000;0.000;2024-02-14T00:58:57;5.93;;;2.97;;
76512;SDS011;65345;0.000;0.000;2024-02-14T00:59:28;6.47;;;3.20;;
76512;SDS011;65345;0.000;0.000;2024-02-14T00:59:58;7.20;;;3.37;;
76512;SDS011;65345;0.000;0.000;2024-02-14T01:01:19;6.13;;;3.00;;
76512;SDS011;65345;0.000;0.000;2024-02-14T01:01:49;6.40;;;3.20;;
76512;SDS011;65345;0.000;0.000;2024-02-14T01:02:19;6.60;;;3.27;;
76512;SDS011;65345;0.000;0.000;2024-02-14T01:02:49;7.03;;;3.25;;
76512;SDS011;65345;0.000;0.000;2024-02-14T01:03:20;5.77;;;3.40;;
76512;SDS011;65345;0.000;0.000;2024-02-14T01:03:50;6.70;;;3.53;;
76512;SDS011;65345;0.000;0.000;2024-02-14T01:04:20;6.38;;;3.05;;
76512;SDS011;65345;0.000;0.000;2024-02-14T01:05:03;6.27;;;3.07;;
76512;SDS011;65345;0.000;0.000;2024-02-14T01:05:34;8.23;;;3.40;;
76512;SDS011;65345;0.000;0.000;2024-02-14T01:06:04;5.93;;;3.10;;
76512;SDS011;65345;0.000;0.000;2024-02-14T01:06:34;5.87;;;2.90;;
76512;SDS011;65345;0.000;0.000;2024-02-14T01:07:05;5.57;;;3.00;;
76512;SDS011;65345;0.000;0.000;2024-02-14T01:07:35;6.15;;;3.15;;
76512;SDS011;65345;0.000;0.000;2024-02-14T01:08:05;6.30;;;3.33;;
76512;SDS011;65345;0.000;0.000;2024-02-14T01:08:37;7.13;;;3.42;;
76512;SDS011;65345;0.000;0.000;2024-02-14T01:09:07;7.10;;;3.50;;
76512;SDS011;65345;0.000;0.000;2024-02-14T01:09:38;7.20;;;3.30;;
76512;SDS011;65345;0.000;0.000;2024-02-14T01:10:08;6.67;;;3.50;;
76512;SDS011;65345;0.000;0.000;2024-02-14T01:10:39;6.70;;;3.13;;
76512;SDS011;65345;0.000;0.000;2024-02-14T01:11:10;6.15;;;3.58;;
76512;SDS011;65345;0.000;0.000;2024-02-14T01:11:40;6.67;;;3.27;;
76512;SDS011;65345;0.000;0.000;2024-02-14T01:12:10;5.13;;;3.10;;
76512;SDS011;65345;0.000;0.000;2024-02-14T01:12:40;7.50;;;3.97;;
76512;SDS011;65345;0.000;0.000;2024-02-14T01:13:11;6.87;;;3.83;;
76512;SDS011;65345;0.000;0.000;2024-02-14T01:13:42;6.78;;;3.58;;
76512;SDS011;65345;0.000;0.000;2024-02-14T01:14:12;7.00;;;4.10;;
76512;SDS011;65345;0.000;0.000;2024-02-14T01:14:44;5.53;;;3.53;;
76512;SDS011;65345;0.000;0.000;2024-02-14T01:15:14;7.45;;;4.00;;
76512;SDS011;65345;0.000;0.000;2024-02-14T01:15:45;7.73;;;3.77;;
76512;SDS011;65345;0.000;0.000;2024-02-14T01:16:15;6.47;;;3.65;;
76512;SDS011;65345;0.000;0.000;2024-02-14T01:16:45;7.47;;;3.70;;
76512;SDS011;65345;0.000;0.000;2024-02-14T01:17:16;6.57;;;3.73;;
76512;SDS011;65345;0.000;0.000;2024-02-14T01:17:46;6.30;;;3.42;;
76512;SDS011;65345;0.000;0.000;2024-02-14T01:18:17;5.93;;;3.35;;
76512;SDS011;65345;0.000;0.000;2024-02-14T01:18:47;5.77;;;3.00;;
76512;SDS011;65345;0.000;0.000;2024-02-14T01:19:18;6.70;;;3.37;;
76512;SDS011;65345;0.000;0.000;2024-02-14T01:19:49;5.95;;;3.30;;
76512;SDS011;65345;0.000;0.000;2024-02-14T01:20:20;5.43;;;3.08;;
76512;SDS011;65345;0.000;0.000;2024-02-14T01:20:50;5.73;;;3.10;;
76512;SDS011;65345;0.000;0.000;2024-02-14T01:21:20;6.97;;;3.40;;
76512;SDS011;65345;0.000;0.000;2024-02-14T01:21:51;6.10;;;3.10;;
76512;SDS011;65345;0.000;0.000;2024-02-14T01:22:21;5.93;;;3.30;;
76512;SDS011;65345;0.000;0.000;2024-02-14T01:22:51;5.43;;;3.17;;
76512;SDS011;65345;0.000;0.000;2024-02-14T01:23:22;5.70;;;3.20;;
76512;SDS011;65345;0.000;0.000;2024-02-14T01:23:53;5.97;;;3.20;;
76512;SDS011;65345;0.000;0.000;2024-02-14T01:24:23;6.13;;;3.03;;
76512;SDS011;65345;0.000;0.000;2024-02-14T01:24:56;5.78;;;3.00;;
76512;SDS011;65345;0.000;0.000;2024-02-14T01:25:28;6.22;;;2.80;;
76512;SDS011;65345;0.000;0.000;2024-02-14T01:25:58;5.90;;;3.00;;
76512;SDS011;65345;0.000;0.000;2024-02-14T01:26:28;5.60;;;3.00;;
76512;SDS011;65345;0.000;0.000;2024-02-14T01:26:59;6.10;;;2.90;;
76512;SDS011;65345;0.000;0.000;2024-02-14T01:27:29;6.55;;;3.13;;
76512;SDS011;65345;0.000;0.000;2024-02-14T01:27:59;5.43;;;3.03;;
76512;SDS011;65345;0.000;0.000;2024-02-14T01:28:30;6.23;;;2.97;;
76512;SDS011;65345;0.000;0.000;2024-02-14T01:29:00;6.30;;;2.97;;
76512;SDS011;65345;0.000;0.000;2024-02-14T01:29:31;5.22;;;2.80;;
76512;SDS011;65345;0.000;0.000;2024-02-14T01:30:01;5.07;;;2.67;;
76512;SDS011;65345;0.000;0.000;2024-02-14T01:30:31;6.20;;;3.10;;
76512;SDS011;65345;0.000;0.000;2024-02-14T01:31:02;5.78;;;2.90;;
76512;SDS011;65345;0.000;0.000;2024-02-14T01:31:35;6.07;;;2.80;;
76512;SDS011;65345;0.000;0.000;2024-02-14T01:32:05;5.93;;;3.05;;
76512;SDS011;65345;0.000;0.000;2024-02-14T01:32:37;5.57;;;2.75;;
76512;SDS011;65345;0.000;0.000;2024-02-14T01:33:07;6.10;;;3.00;;
76512;SDS011;65345;0.000;0.000;2024-02-14T01:33:37;5.43;;;2.77;;
76512;SDS011;65345;0.000;0.000;2024-02-14T01:34:08;6.13;;;2.80;;
76512;SDS011;65345;0.000;0.000;2024-02-14T01:34:38;8.40;;;3.20;;
76512;SDS011;65345;0.000;0.000;2024-02-14T01:35:11;5.63;;;2.70;;
76512;SDS011;65345;0.000;0.000;2024-02-14T01:35:43;5.57;;;2.72;;
76512;SDS011;65345;0.000;0.000;2024-02-14T01:36:13;5.93;;;2.92;;
76512;SDS011;65345;0.000;0.000;2024-02-14T01:36:44;5.77;;;2.83;;
76512;SDS011;65345;0.000;0.000;2024-02-14T01:37:14;5.97;;;2.72;;
76512;SDS011;65345;0.000;0.000;2024-02-14T01:37:44;6.00;;;2.87;;
76512;SDS011;65345;0.000;0.000;2024-02-14T01:38:15;4.95;;;2.58;;
76512;SDS011;65345;0.000;0.000;2024-02-14T01:38:45;6.23;;;2.80;;
76512;SDS011;65345;0.000;0.000;2024-02-14T01:39:15;5.13;;;2.57;;
76512;SDS011;65345;0.000;0.000;2024-02-14T01:39:47;5.05;;;2.50;;
76512;SDS011;65345;0.000;0.000;2024-02-14T01:40:18;5.22;;;2.63;;
76512;SDS011;65345;0.000;0.000;2024-02-14T01:40:48;4.97;;;2.50;;
76512;SDS011;65345;0.000;0.000;2024-02-14T01:41:18;5.53;;;2.70;;
76512;SDS011;65345;0.000;0.000;2024-02-14T01:41:49;5.22;;;2.50;;
76512;SDS011;65345;0.000;0.000;2024-02-14T01:42:19;5.40;;;2.60;;
76512;SDS011;65345;0.000;0.000;2024-02-14T01:42:50;4.97;;;2.50;;
76512;SDS011;65345;0.000;0.000;2024-02-14T01:43:22;5.85;;;2.70;;
76512;SDS011;65345;0.000;0.000;2024-02-14T01:43:52;5.63;;;2.55;;
76512;SDS011;65345;0.000;0.000;2024-02-14T01:44:22;5.80;;;2.73;;
76512;SDS011;65345;0.000;0.000;2024-02-14T01:44:53;5.30;;;2.73;;
76512;SDS011;65345;0.000;0.000;2024-02-14T01:45:33;5.10;;;2.63;;
76512;SDS011;65345;0.000;0.000;2024-02-14T01:46:07;5.65;;;2.60;;
76512;SDS011;65345;0.000;0.000;2024-02-14T01:46:37;5.20;;;2.60;;
76512;SDS011;65345;0.000;0.000;2024-02-14T01:47:08;6.63;;;2.80;;
76512;SDS011;65345;0.000;0.000;2024-02-14T01:47:40;4.82;;;2.47;;
76512;SDS011;65345;0.000;0.000;2024-02-14T01:48:11;4.80;;;2.50;;
76512;SDS011;65345;0.000;0.000;2024-02-14T01:48:41;4.23;;;2.40;;
76512;SDS011;65345;0.000;0.000;2024-02-14T01:49:13;4.93;;;2.22;;
76512;SDS011;65345;0.000;0.000;2024-02-14T01:49:45;5.82;;;2.60;;
76512;SDS011;65345;0.000;0.000;2024-02-14T01:50:15;5.67;;;2.50;;
76512;SDS011;65345;0.000;0.000;2024-02-14T01:52:06;5.82;;;2.40;;
76512;SDS011;65345;0.000;0.000;2024-02-14T01:52:39;5.07;;;2.47;;
76512;SDS011;65345;0.000;0.000;2024-02-14T01:53:10;4.63;;;2.40;;
76512;SDS011;65345;0.000;0.000;2024-02-14T01:53:41;6.13;;;2.50;;
76512;SDS011;65345;0.000;0.000;2024-02-14T01:54:12;5.57;;;2.30;;
76512;SDS011;65345;0.000;0.000;2024-02-14T01:54:44;4.57;;;2.20;;
76512;SDS011;65345;0.000;0.000;2024-02-14T01:55:14;5.40;;;2.30;;
76512;SDS011;65345;0.000;0.000;2024-02-14T01:55:45;6.03;;;2.50;;
76512;SDS011;65345;0.000;0.000;2024-02-14T01:56:15;5.82;;;2.53;;
76512;SDS011;65345;0.000;0.000;2024-02-14T01:56:45;6.17;;;3.03;;
76512;SDS011;65345;0.000;0.000;2024-02-14T01:57:16;4.80;;;2.40;;
76512;SDS011;65345;0.000;0.000;2024-02-14T01:57:46;5.07;;;2.40;;
76512;SDS011;65345;0.000;0.000;2024-02-14T01:58:16;5.63;;;2.43;;
76512;SDS011;65345;0.000;0.000;2024-02-14T01:58:47;5.38;;;2.40;;
76512;SDS011;65345;0.000;0.000;2024-02-14T01:59:17;5.93;;;2.53;;
76512;SDS011;65345;0.000;0.000;2024-02-14T01:59:48;5.47;;;2.30;;
76512;SDS011;65345;0.000;0.000;2024-02-14T02:00:19;5.90;;;2.40;;
76512;SDS011;65345;0.000;0.000;2024-02-14T02:00:51;5.30;;;2.33;;
76512;SDS011;65345;0.000;0.000;2024-02-14T02:01:25;6.15;;;2.30;;
76512;SDS011;65345;0.000;0.000;2024-02-14T02:01:56;4.68;;;2.30;;
76512;SDS011;65345;0.000;0.000;2024-02-14T02:02:27;5.17;;;2.50;;
76512;SDS011;65345;0.000;0.000;2024-02-14T02:02:57;5.20;;;2.50;;
76512;SDS011;65345;0.000;0.000;2024-02-14T02:03:27;5.68;;;2.58;;
76512;SDS011;65345;0.000;0.000;2024-02-14T02:03:58;4.97;;;2.33;;
76512;SDS011;65345;0.000;0.000;2024-02-14T02:04:28;5.97;;;2.53;;
76512;SDS011;65345;0.000;0.000;2024-02-14T02:05:00;6.07;;;2.50;;
76512;SDS011;65345;0.000;0.000;2024-02-14T02:05:30;4.38;;;2.05;;
76512;SDS011;65345;0.000;0.000;2024-02-14T02:06:00;4.90;;;2.40;;
76512;SDS011;65345;0.000;0.000;2024-02-14T02:06:31;5.37;;;2.30;;
76512;SDS011;65345;0.000;0.000;2024-02-14T02:07:01;5.38;;;2.35;;
76512;SDS011;65345;0.000;0.000;2024-02-14T02:07:32;4.87;;;2.33;;
76512;SDS011;65345;0.000;0.000;2024-02-14T02:08:02;5.35;;;2.30;;
76512;SDS011;65345;0.000;0.000;2024-02-14T02:08:32;5.20;;;2.30;;
76512;SDS011;65345;0.000;0.000;2024-02-14T02:09:03;5.43;;;2.28;;
76512;SDS011;65345;0.000;0.000;2024-02-14T02:09:33;5.33;;;2.30;;
76512;SDS011;65345;0.000;0.000;2024-02-14T02:10:04;4.65;;;2.20;;
76512;SDS011;65345;0.000;0.000;2024-02-14T02:10:35;4.70;;;2.20;;
76512;SDS011;65345;0.000;0.000;2024-02-14T02:11:05;5.23;;;2.40;;
76512;SDS011;65345;0.000;0.000;2024-02-14T02:11:46;4.35;;;2.10;;
76512;SDS011;65345;0.000;0.000;2024-02-14T02:12:18;5.60;;;2.30;;
76512;SDS011;65345;0.000;0.000;2024-02-14T02:12:48;4.53;;;2.05;;
76512;SDS011;65345;0.000;0.000;2024-02-14T02:13:20;5.25;;;2.30;;
76512;SDS011;65345;0.000;0.000;2024-02-14T02:13:51;4.33;;;2.03;;
76512;SDS011;65345;0.000;0.000;2024-02-14T02:14:21;5.30;;;2.47;;
76512;SDS011;65345;0.000;0.000;2024-02-14T02:14:52;6.18;;;2.20;;
76512;SDS011;65345;0.000;0.000;2024-02-14T02:15:22;4.43;;;2.07;;
76512;SDS011;65345;0.000;0.000;2024-02-14T02:15:53;5.57;;;2.30;;
76512;SDS011;65345;0.000;0.000;2024-02-14T02:16:23;4.72;;;2.22;;
76512;SDS011;65345;0.000;0.000;2024-02-14T02:16:53;5.03;;;2.43;;
76512;SDS011;65345;0.000;0.000;2024-02-14T02:17:24;4.57;;;2.37;;
76512;SDS011;65345;0.000;0.000;2024-02-14T02:17:54;5.07;;;2.10;;
76512;SDS011;65345;0.000;0.000;2024-02-14T02:18:24;4.60;;;2.10;;
76512;SDS011;65345;0.000;0.000;2024-02-14T02:18:55;4.55;;;2.10;;
76512;SDS011;65345;0.000;0.000;2024-02-14T02:19:26;4.35;;;2.15;;
76512;SDS011;65345;0.000;0.000;2024-02-14T02:19:56;5.07;;;2.03;;
76512;SDS011;65345;0.000;0.000;2024-02-14T02:20:27;5.18;;;2.40;;
76512;SDS011;65345;0.000;0.000;2024-02-14T02:20:58;4.23;;;2.13;;
76512;SDS011;65345;0.000;0.000;2024-02-14T02:21:28;5.10;;;2.57;;
76512;SDS011;65345;0.000;0.000;2024-02-14T02:22:00;4.82;;;2.00;;
76512;SDS011;65345;0.000;0.000;2024-02-14T02:22:30;4.75;;;2.25;;
76512;SDS011;65345;0.000;0.000;2024-02-14T02:23:02;5.85;;;2.38;;
76512;SDS011;65345;0.000;0.000;2024-02-14T02:23:35;4.75;;;2.20;;
76512;SDS011;65345;0.000;0.000;2024-02-14T02:24:05;4.43;;;2.17;;
76512;SDS011;65345;0.000;0.000;2024-02-14T02:24:36;4.63;;;2.30;;
76512;SDS011;65345;0.000;0.000;2024-02-14T02:25:07;4.97;;;2.20;;
76512;SDS011;65345;0.000;0.000;2024-02-14T02:25:37;4.75;;;2.30;;
76512;SDS011;65345;0.000;0.000;2024-02-14T02:26:07;3.97;;;1.97;;
76512;SDS011;65345;0.000;0.000;2024-02-14T02:26:38;4.13;;;2.00;;
76512;SDS011;65345;0.000;0.000;2024-02-14T02:27:08;4.55;;;2.05;;
76512;SDS011;65345;0.000;0.000;2024-02-14T02:27:38;4.90;;;2.20;;
76512;SDS011;65345;0.000;0.000;2024-02-14T02:28:08;5.77;;;2.27;;
76512;SDS011;65345;0.000;0.000;2024-02-14T02:28:39;4.38;;;2.05;;
76512;SDS011;65345;0.000;0.000;2024-02-14T02:29:09;4.47;;;2.10;;
76512;SDS011;65345;0.000;0.000;2024-02-14T02:29:39;4.75;;;2.20;;
76512;SDS011;65345;0.000;0.000;2024-02-14T02:30:10;4.57;;;2.27;;
76512;SDS011;65345;0.000;0.000;2024-02-14T02:30:40;3.83;;;1.90;;
76512;SDS011;65345;0.000;0.000;2024-02-14T02:31:10;4.68;;;2.20;;
76512;SDS011;65345;0.000;0.000;2024-02-14T02:31:40;4.27;;;2.10;;
76512;SDS011;65345;0.000;0.000;2024-02-14T02:32:11;4.23;;;2.10;;
76512;SDS011;65345;0.000;0.000;2024-02-14T02:32:42;4.25;;;2.10;;
76512;SDS011;65345;0.000;0.000;2024-02-14T02:33:12;5.20;;;2.10;;
76512;SDS011;65345;0.000;0.000;2024-02-14T02:33:43;4.17;;;2.10;;
76512;SDS011;65345;0.000;0.000;2024-02-14T02:34:13;4.30;;;1.90;;
76512;SDS011;65345;0.000;0.000;2024-02-14T02:34:43;5.23;;;1.93;;
76512;SDS011;65345;0.000;0.000;2024-02-14T02:35:15;5.18;;;2.28;;
76512;SDS011;65345;0.000;0.000;2024-02-14T02:35:46;4.93;;;2.20;;
76512;SDS011;65345;0.000;0.000;2024-02-14T02:36:16;3.85;;;1.90;;
76512;SDS011;65345;0.000;0.000;2024-02-14T02:36:46;4.80;;;2.10;;
76512;SDS011;65345;0.000;0.000;2024-02-14T02:39:51;3.90;;;1.77;;
76512;SDS011;65345;0.000;0.000;2024-02-14T02:40:22;4.32;;;2.00;;
76512;SDS011;65345;0.000;0.000;2024-02-14T02:40:52;4.30;;;2.00;;
76512;SDS011;65345;0.000;0.000;2024-02-14T02:42:30;4.05;;;2.10;;
76512;SDS011;65345;0.000;0.000;2024-02-14T02:43:00;4.78;;;2.00;;
76512;SDS011;65345;0.000;0.000;2024-02-14T02:43:30;4.40;;;2.10;;
76512;SDS011;65345;0.000;0.000;2024-02-14T02:44:01;4.80;;;2.20;;
76512;SDS011;65345;0.000;0.000;2024-02-14T02:44:32;4.40;;;2.10;;
76512;SDS011;65345;0.000;0.000;2024-02-14T02:45:02;3.85;;;1.83;;
76512;SDS011;65345;0.000;0.000;2024-02-14T02:45:35;5.03;;;2.30;;
76512;SDS011;65345;0.000;0.000;2024-02-14T02:46:05;4.33;;;1.90;;
76512;SDS011;65345;0.000;0.000;2024-02-14T02:46:39;4.88;;;1.98;;
76512;SDS011;65345;0.000;0.000;2024-02-14T02:47:09;4.33;;;2.17;;
76512;SDS011;65345;0.000;0.000;2024-02-14T02:47:41;4.72;;;2.17;;
76512;SDS011;65345;0.000;0.000;2024-02-14T02:48:11;5.00;;;2.10;;
76512;SDS011;65345;0.000;0.000;2024-02-14T02:48:41;3.93;;;1.83;;
76512;SDS011;65345;0.000;0.000;2024-02-14T02:49:11;4.60;;;2.07;;
76512;SDS011;65345;0.000;0.000;2024-02-14T02:49:44;3.25;;;1.65;;
76512;SDS011;65345;0.000;0.000;2024-02-14T02:50:14;4.80;;;2.00;;
76512;SDS011;65345;0.000;0.000;2024-02-14T02:50:44;4.68;;;2.00;;
76512;SDS011;65345;0.000;0.000;2024-02-14T02:51:19;5.28;;;2.25;;
76512;SDS011;65345;0.000;0.000;2024-02-14T02:51:49;4.60;;;1.85;;
76512;SDS011;65345;0.000;0.000;2024-02-14T02:52:19;4.50;;;1.90;;
76512;SDS011;65345;0.000;0.000;2024-02-14T02:52:50;3.63;;;1.97;;
76512;SDS011;65345;0.000;0.000;2024-02-14T02:53:20;4.88;;;1.90;;
76512;SDS011;65345;0.000;0.000;2024-02-14T02:53:50;4.00;;;1.70;;
76512;SDS011;65345;0.000;0.000;2024-02-14T02:54:24;4.20;;;1.75;;
76512;SDS011;65345;0.000;0.000;2024-02-14T02:54:54;4.50;;;2.10;;
76512;SDS011;65345;0.000;0.000;2024-02-14T02:55:24;4.73;;;2.03;;
76512;SDS011;65345;0.000;0.000;2024-02-14T02:55:56;4.07;;;1.90;;
76512;SDS011;65345;0.000;0.000;2024-02-14T02:56:27;4.05;;;1.90;;
76512;SDS011;65345;0.000;0.000;2024-02-14T02:56:57;4.00;;;2.00;;
76512;SDS011;65345;0.000;0.000;2024-02-14T02:57:28;4.10;;;1.90;;
76512;SDS011;65345;0.000;0.000;2024-02-14T02:57:59;3.60;;;2.00;;
76512;SDS011;65345;0.000;0.000;2024-02-14T02:58:30;4.30;;;1.95;;
76512;SDS011;65345;0.000;0.000;2024-02-14T02:59:01;4.67;;;1.97;;
76512;SDS011;65345;0.000;0.000;2024-02-14T02:59:34;5.13;;;2.10;;
76512;SDS011;65345;0.000;0.000;2024-02-14T03:00:06;3.90;;;2.00;;
76512;SDS011;65345;0.000;0.000;2024-02-14T03:00:37;4.63;;;2.00;;
76512;SDS011;65345;0.000;0.000;2024-02-14T03:01:12;4.23;;;2.00;;
76512;SDS011;65345;0.000;0.000;2024-02-14T03:01:43;3.47;;;1.92;;
76512;SDS011;65345;0.000;0.000;2024-02-14T03:02:14;4.57;;;2.20;;
76512;SDS011;65345;0.000;0.000;2024-02-14T03:02:45;4.50;;;2.10;;
76512;SDS011;65345;0.000;0.000;2024-02-14T03:03:15;3.78;;;1.80;;
76512;SDS011;65345;0.000;0.000;2024-02-14T03:03:46;3.90;;;1.80;;
76512;SDS011;65345;0.000;0.000;2024-02-14T03:04:16;4.53;;;1.90;;
76512;SDS011;65345;0.000;0.000;2024-02-14T03:04:46;3.90;;;1.80;;
76512;SDS011;65345;0.000;0.000;2024-02-14T03:05:17;3.72;;;1.80;;
76512;SDS011;65345;0.000;0.000;2024-02-14T03:05:53;4.85;;;2.05;;
76512;SDS011;65345;0.000;0.000;2024-02-14T03:06:25;4.82;;;2.00;;
76512;SDS011;65345;0.000;0.000;2024-02-14T03:06:57;5.03;;;1.97;;
76512;SDS011;65345;0.000;0.000;2024-02-14T03:07:27;4.70;;;1.80;;
76512;SDS011;65345;0.000;0.000;2024-02-14T03:07:58;3.60;;;1.80;;
76512;SDS011;65345;0.000;0.000;2024-02-14T03:08:28;4.50;;;2.00;;
76512;SDS011;65345;0.000;0.000;2024-02-14T03:09:00;4.43;;;1.80;;
76512;SDS011;65345;0.000;0.000;2024-02-14T03:09:31;3.30;;;1.60;;
76512;SDS011;65345;0.000;0.000;2024-02-14T03:10:01;3.47;;;1.67;;
76512;SDS011;65345;0.000;0.000;2024-02-14T03:10:33;4.00;;;1.77;;
76512;SDS011;65345;0.000;0.000;2024-02-14T03:15:35;3.95;;;1.80;;
76512;SDS011;65345;0.000;0.000;2024-02-14T03:16:05;4.13;;;1.93;;
76512;SDS011;65345;0.000;0.000;2024-02-14T03:16:36;5.53;;;1.93;;
76512;SDS011;65345;0.000;0.000;2024-02-14T03:19:13;3.83;;;1.73;;
76512;SDS011;65345;0.000;0.000;2024-02-14T03:19:43;3.97;;;1.83;;
76512;SDS011;65345;0.000;0.000;2024-02-14T03:20:14;3.90;;;1.87;;
76512;SDS011;65345;0.000;0.000;2024-02-14T03:20:44;4.90;;;2.00;;
76512;SDS011;65345;0.000;0.000;2024-02-14T03:21:14;4.10;;;1.90;;
76512;SDS011;65345;0.000;0.000;2024-02-14T03:21:45;4.20;;;1.93;;